Station History

Weather Underground - logo

Station Historical Data
Daily Summary for September 25, 2017 Units:  English    Metric   Both
« Previous Day
Next Day »
Daily Weekly Monthly Yearly Custom
  High: Low: Average:
Temperature: 84.1 °F 51.0 °F 66.5 °F
Dew Point: 53.3 °F 42.2 °F 48 °F
Humidity: 86 % 25 % 57 %
Wind Speed: 4.6 mph 0.0 mph 0.9 mph
Wind Gust: 4.6 mph - -
Wind:- - SW
Pressure: 29.94 in 29.79 in -
Precipitation: 0.00 in    
Historical Graphs
 
 
Tabular Data for September 25, 2017
Time Temperature Dew Point Pressure Wind Wind Speed Wind Gust Humidity Rainfall Rate (Hourly)
00:01 57.4 °F 49.2 °F 29.90 in Calm     74 % 0.00 in
00:06 57.1 °F 49.2 °F 29.90 in Calm     75 % 0.00 in
00:11 56.9 °F 49.4 °F 29.90 in Calm     76 % 0.00 in
00:16 56.7 °F 49.2 °F 29.90 in Calm     76 % 0.00 in
00:21 56.6 °F 49.1 °F 29.90 in Calm     76 % 0.00 in
00:26 56.7 °F 49.2 °F 29.90 in Calm     76 % 0.00 in
00:32 56.7 °F 49.6 °F 29.90 in Calm     77 % 0.00 in
00:37 56.5 °F 49.0 °F 29.91 in Calm     76 % 0.00 in
00:42 56.3 °F 48.8 °F 29.91 in Calm     76 % 0.00 in
00:47 56.2 °F 48.4 °F 29.90 in Calm     75 % 0.00 in
00:52 56.3 °F 48.8 °F 29.91 in Calm     76 % 0.00 in
00:57 56.2 °F 49.1 °F 29.91 in Calm     77 % 0.00 in
01:02 56.1 °F 48.3 °F 29.90 in Calm     75 % 0.00 in
01:07 55.9 °F 48.1 °F 29.90 in Calm     75 % 0.00 in
01:12 56.0 °F 47.5 °F 29.90 in Calm     73 % 0.00 in
01:17 56.1 °F 47.2 °F 29.90 in Calm     72 % 0.00 in
01:22 56.1 °F 46.8 °F 29.90 in Calm     71 % 0.00 in
01:27 56.5 °F 46.8 °F 29.90 in Calm     70 % 0.00 in
01:32 56.4 °F 46.7 °F 29.90 in Calm     70 % 0.00 in
01:37 56.3 °F 47.8 °F 29.90 in Calm     73 % 0.00 in
01:42 56.2 °F 48.7 °F 29.90 in Calm     76 % 0.00 in
01:47 55.8 °F 48.0 °F 29.90 in Calm     75 % 0.00 in
01:52 55.6 °F 48.2 °F 29.90 in ESE 1.0 mph   76 % 0.00 in
01:57 55.6 °F 48.2 °F 29.90 in ESE 1.2 mph 1.2 mph 76 % 0.00 in
02:00 55.5 °F 47.7 °F 29.90 in Calm     75 % 0.00 in
02:05 55.4 °F 48.0 °F 29.90 in Calm   0.5 mph 76 % 0.00 in
02:10 55.3 °F 48.9 °F 29.90 in Calm     79 % 0.00 in
02:15 55.1 °F 48.7 °F 29.90 in Calm     79 % 0.00 in
02:20 55.0 °F 48.6 °F 29.90 in Calm     79 % 0.00 in
02:25 54.9 °F 48.8 °F 29.91 in Calm     80 % 0.00 in
02:30 54.8 °F 48.4 °F 29.91 in Calm     79 % 0.00 in
02:35 54.7 °F 48.3 °F 29.91 in Calm     79 % 0.00 in
02:40 54.5 °F 48.5 °F 29.91 in Calm     80 % 0.00 in
02:45 54.1 °F 48.1 °F 29.90 in Calm     80 % 0.00 in
02:50 53.5 °F 47.8 °F 29.91 in Calm     81 % 0.00 in
02:55 53.4 °F 47.7 °F 29.91 in Calm     81 % 0.00 in
03:00 53.4 °F 47.7 °F 29.91 in Calm     81 % 0.00 in
03:06 53.6 °F 47.9 °F 29.91 in Calm     81 % 0.00 in
03:11 53.6 °F 47.9 °F 29.91 in Calm     81 % 0.00 in
03:16 53.6 °F 48.2 °F 29.91 in Calm     82 % 0.00 in
03:20 53.4 °F 48.0 °F 29.90 in Calm     82 % 0.00 in
03:26 53.4 °F 48.0 °F 29.90 in Calm     82 % 0.00 in
03:31 53.3 °F 48.3 °F 29.90 in Calm     83 % 0.00 in
03:36 53.3 °F 48.6 °F 29.90 in Calm     84 % 0.00 in
03:41 53.1 °F 48.4 °F 29.90 in Calm     84 % 0.00 in
03:46 52.9 °F 48.2 °F 29.90 in Calm     84 % 0.00 in
03:51 52.8 °F 48.1 °F 29.90 in Calm     84 % 0.00 in
03:56 52.9 °F 48.2 °F 29.90 in Calm     84 % 0.00 in
04:01 52.8 °F 48.1 °F 29.90 in Calm     84 % 0.00 in
04:06 52.7 °F 48.0 °F 29.91 in Calm     84 % 0.00 in
04:11 52.4 °F 47.4 °F 29.91 in Calm     83 % 0.00 in
04:16 52.1 °F 47.1 °F 29.91 in Calm     83 % 0.00 in
04:21 52.2 °F 46.9 °F 29.91 in Calm     82 % 0.00 in
04:26 52.1 °F 46.4 °F 29.91 in Calm     81 % 0.00 in
04:31 52.1 °F 47.1 °F 29.91 in Calm     83 % 0.00 in
04:36 52.4 °F 46.7 °F 29.90 in ESE 1.2 mph   81 % 0.00 in
04:41 52.7 °F 46.7 °F 29.90 in Calm     80 % 0.00 in
04:46 52.8 °F 46.8 °F 29.90 in Calm     80 % 0.00 in
04:51 52.8 °F 47.1 °F 29.90 in Calm     81 % 0.00 in
04:56 52.6 °F 47.3 °F 29.90 in Calm     82 % 0.00 in
05:01 52.3 °F 47.3 °F 29.90 in Calm     83 % 0.00 in
05:06 51.9 °F 46.9 °F 29.90 in Calm     83 % 0.00 in
05:11 51.4 °F 46.4 °F 29.90 in Calm     83 % 0.00 in
05:16 51.3 °F 46.6 °F 29.90 in Calm     84 % 0.00 in
05:21 51.3 °F 46.9 °F 29.90 in Calm     85 % 0.00 in
05:26 51.2 °F 46.5 °F 29.90 in Calm     84 % 0.00 in
05:31 51.0 °F 46.0 °F 29.91 in Calm     83 % 0.00 in
05:36 51.0 °F 46.0 °F 29.91 in Calm     83 % 0.00 in
05:41 51.4 °F 46.1 °F 29.91 in Calm     82 % 0.00 in
05:46 51.5 °F 45.9 °F 29.91 in Calm     81 % 0.00 in
05:51 51.6 °F 46.3 °F 29.91 in Calm     82 % 0.00 in
05:56 51.7 °F 46.7 °F 29.91 in Calm     83 % 0.00 in
06:01 51.7 °F 47.0 °F 29.91 in Calm     84 % 0.00 in
06:06 51.7 °F 47.0 °F 29.91 in Calm     84 % 0.00 in
06:11 51.6 °F 46.6 °F 29.91 in Calm     83 % 0.00 in
06:16 51.8 °F 46.5 °F 29.91 in Calm     82 % 0.00 in
06:21 52.1 °F 47.1 °F 29.91 in Calm     83 % 0.00 in
06:23 52.1 °F 46.8 °F 29.91 in Calm     82 % 0.00 in
06:28 52.2 °F 46.9 °F 29.92 in Calm     82 % 0.00 in
06:33 52.4 °F 46.7 °F 29.92 in Calm     81 % 0.00 in
06:38 52.3 °F 46.6 °F 29.92 in Calm     81 % 0.00 in
06:43 52.0 °F 47.0 °F 29.92 in Calm     83 % 0.00 in
06:48 51.7 °F 46.7 °F 29.92 in Calm     83 % 0.00 in
06:53 51.5 °F 46.8 °F 29.92 in Calm     84 % 0.00 in
06:58 51.3 °F 46.6 °F 29.92 in Calm     84 % 0.00 in
07:03 51.3 °F 46.9 °F 29.92 in Calm     85 % 0.00 in
07:08 51.2 °F 46.5 °F 29.92 in Calm     84 % 0.00 in
07:13 51.1 °F 46.7 °F 29.92 in Calm     85 % 0.00 in
07:18 51.1 °F 46.7 °F 29.92 in Calm     85 % 0.00 in
07:23 51.4 °F 47.4 °F 29.92 in Calm     86 % 0.00 in
07:28 51.7 °F 47.3 °F 29.92 in Calm     85 % 0.00 in
07:33 52.4 °F 47.7 °F 29.92 in Calm     84 % 0.00 in
07:38 53.2 °F 48.5 °F 29.92 in Calm     84 % 0.00 in
07:43 53.5 °F 48.8 °F 29.92 in Calm     84 % 0.00 in
07:48 53.9 °F 48.9 °F 29.93 in Calm     83 % 0.00 in
07:58 55.0 °F 49.3 °F 29.93 in Calm     81 % 0.00 in
08:03 55.8 °F 49.0 °F 29.93 in Calm     78 % 0.00 in
08:08 56.8 °F 49.3 °F 29.93 in Calm     76 % 0.00 in
08:13 58.1 °F 50.6 °F 29.93 in Calm     76 % 0.00 in
08:18 59.4 °F 51.5 °F 29.93 in Calm     75 % 0.00 in
08:23 60.5 °F 50.7 °F 29.93 in Calm     70 % 0.00 in
08:29 61.6 °F 50.1 °F 29.93 in Calm     66 % 0.00 in
08:34 62.7 °F 49.1 °F 29.94 in Calm     61 % 0.00 in
08:39 63.5 °F 50.7 °F 29.93 in WSW 1.0 mph   63 % 0.00 in
08:44 64.0 °F 49.4 °F 29.94 in West 1.0 mph 1.0 mph 59 % 0.00 in
08:49 64.3 °F 49.2 °F 29.94 in Calm   0.1 mph 58 % 0.00 in
08:54 64.9 °F 48.3 °F 29.94 in WNW 1.2 mph   55 % 0.00 in
08:59 64.9 °F 48.3 °F 29.94 in West 1.2 mph   55 % 0.00 in
09:04 65.7 °F 48.6 °F 29.94 in WNW 1.2 mph   54 % 0.00 in
09:09 66.5 °F 49.3 °F 29.94 in NE 1.2 mph 1.2 mph 54 % 0.00 in
09:14 67.3 °F 48.0 °F 29.94 in West 1.2 mph   50 % 0.00 in
09:19 67.7 °F 47.3 °F 29.94 in East 1.2 mph 1.2 mph 48 % 0.00 in
09:24 68.4 °F 48.5 °F 29.94 in Calm     49 % 0.00 in
09:29 69.0 °F 46.2 °F 29.94 in SE 2.3 mph 2.3 mph 44 % 0.00 in
09:39 70.1 °F 47.2 °F 29.94 in South 2.3 mph 2.3 mph 44 % 0.00 in
09:44 70.4 °F 46.2 °F 29.94 in South 1.2 mph 1.2 mph 42 % 0.00 in
09:49 70.6 °F 46.4 °F 29.94 in East 2.3 mph 2.3 mph 42 % 0.00 in
09:54 70.4 °F 46.8 °F 29.94 in East 2.3 mph 2.3 mph 43 % 0.00 in
09:59 70.3 °F 46.1 °F 29.93 in NE 2.3 mph 2.3 mph 42 % 0.00 in
10:04 70.6 °F 45.7 °F 29.93 in East 4.6 mph 4.6 mph 41 % 0.00 in
10:09 71.0 °F 46.1 °F 29.93 in ENE 4.0 mph 4.0 mph 41 % 0.00 in
10:14 71.2 °F 45.6 °F 29.93 in SSW 3.5 mph 3.5 mph 40 % 0.00 in
10:15 71.4 °F 47.1 °F 29.93 in South 2.3 mph 2.3 mph 42 % 0.00 in
10:20 72.0 °F 46.3 °F 29.93 in ESE 2.3 mph 2.3 mph 40 % 0.00 in
10:25 72.7 °F 48.3 °F 29.93 in SSE 1.2 mph 1.2 mph 42 % 0.00 in
10:30 73.2 °F 47.4 °F 29.92 in SE 2.3 mph 2.3 mph 40 % 0.00 in
10:35 73.8 °F 46.6 °F 29.92 in South 2.3 mph 2.3 mph 38 % 0.00 in
10:40 74.4 °F 47.8 °F 29.92 in SE 1.2 mph 1.2 mph 39 % 0.00 in
10:45 75.1 °F 46.3 °F 29.92 in ESE 3.5 mph 3.5 mph 36 % 0.00 in
10:51 75.3 °F 46.5 °F 29.92 in SSE 3.5 mph   36 % 0.00 in
10:56 75.9 °F 47.0 °F 29.92 in East 3.5 mph 3.5 mph 36 % 0.00 in
11:01 76.3 °F 46.6 °F 29.92 in SE 4.0 mph 4.0 mph 35 % 0.00 in
11:06 76.4 °F 47.5 °F 29.91 in WNW 2.3 mph 2.3 mph 36 % 0.00 in
11:11 76.7 °F 45.4 °F 29.91 in SE 3.5 mph 3.5 mph 33 % 0.00 in
11:16 76.8 °F 46.3 °F 29.91 in SE 3.5 mph 3.5 mph 34 % 0.00 in
11:21 76.9 °F 45.6 °F 29.91 in South 3.5 mph 3.5 mph 33 % 0.00 in
11:26 77.3 °F 47.5 °F 29.91 in SSE 2.3 mph 2.3 mph 35 % 0.00 in
11:31 77.7 °F 47.9 °F 29.91 in West 2.3 mph 2.3 mph 35 % 0.00 in
11:41 78.2 °F 45.9 °F 29.91 in NE 3.5 mph 3.5 mph 32 % 0.00 in
11:43 78.2 °F 47.5 °F 29.91 in SE 3.5 mph 3.5 mph 34 % 0.00 in
11:47 78.2 °F 46.7 °F 29.90 in SE 2.3 mph 2.3 mph 33 % 0.00 in
11:52 78.8 °F 47.3 °F 29.90 in West 1.2 mph 1.2 mph 33 % 0.00 in
11:57 79.6 °F 48.8 °F 29.90 in SE 2.3 mph 2.3 mph 34 % 0.00 in
12:02 79.7 °F 48.8 °F 29.90 in North 2.3 mph 2.3 mph 34 % 0.00 in
12:07 79.9 °F 46.6 °F 29.89 in NW 2.3 mph 2.3 mph 31 % 0.00 in
12:12 79.7 °F 45.5 °F 29.89 in NW 1.2 mph 1.2 mph 30 % 0.00 in
12:17 79.4 °F 47.0 °F 29.89 in ESE 4.6 mph 4.6 mph 32 % 0.00 in
12:22 79.8 °F 45.6 °F 29.89 in WSW 2.3 mph 2.3 mph 30 % 0.00 in
12:27 80.1 °F 46.7 °F 29.88 in NW 3.5 mph 3.5 mph 31 % 0.00 in
12:32 80.6 °F 48.8 °F 29.88 in NW 1.2 mph 1.2 mph 33 % 0.00 in
12:37 80.5 °F 47.1 °F 29.88 in NW 1.2 mph 1.2 mph 31 % 0.00 in
12:42 81.0 °F 47.5 °F 29.88 in ESE 2.3 mph 2.3 mph 31 % 0.00 in
12:47 81.2 °F 50.2 °F 29.88 in SSW 1.2 mph   34 % 0.00 in
12:52 81.9 °F 52.3 °F 29.88 in WSW 1.2 mph   36 % 0.00 in
12:57 82.3 °F 46.9 °F 29.87 in South 3.5 mph 3.5 mph 29 % 0.00 in
13:02 82.6 °F 48.0 °F 29.87 in East 2.3 mph 2.3 mph 30 % 0.00 in
13:07 82.4 °F 47.8 °F 29.87 in NW 2.3 mph 2.3 mph 30 % 0.00 in
13:12 81.9 °F 44.6 °F 29.87 in West 1.2 mph 1.2 mph 27 % 0.00 in
13:17 82.4 °F 47.8 °F 29.86 in East 2.3 mph 2.3 mph 30 % 0.00 in
13:22 83.0 °F 49.2 °F 29.86 in East 2.3 mph 2.3 mph 31 % 0.00 in
13:27 83.2 °F 45.7 °F 29.86 in WSW 2.3 mph 2.3 mph 27 % 0.00 in
13:32 82.6 °F 48.0 °F 29.86 in WNW 3.5 mph 3.5 mph 30 % 0.00 in
13:37 82.5 °F 46.1 °F 29.85 in West 2.0 mph 2.0 mph 28 % 0.00 in
13:42 82.4 °F 46.0 °F 29.85 in NW 2.3 mph 2.3 mph 28 % 0.00 in
13:47 82.0 °F 45.7 °F 29.85 in WNW 2.3 mph 2.3 mph 28 % 0.00 in
13:52 81.9 °F 46.5 °F 29.85 in NW 2.3 mph 2.3 mph 29 % 0.00 in
13:57 82.3 °F 45.0 °F 29.85 in NW 2.3 mph 2.3 mph 27 % 0.00 in
14:02 82.7 °F 47.2 °F 29.84 in NNW 2.0 mph 2.0 mph 29 % 0.00 in
14:07 82.9 °F 45.5 °F 29.85 in NW 2.3 mph   27 % 0.00 in
14:12 82.8 °F 45.4 °F 29.84 in NW 1.2 mph 1.2 mph 27 % 0.00 in
14:17 83.2 °F 44.7 °F 29.84 in NW 3.5 mph 3.5 mph 26 % 0.00 in
14:22 83.2 °F 43.7 °F 29.84 in East 1.2 mph 1.2 mph 25 % 0.00 in
14:27 83.2 °F 44.7 °F 29.84 in West 3.0 mph 3.0 mph 26 % 0.00 in
14:32 83.1 °F 43.6 °F 29.84 in Calm     25 % 0.00 in
14:37 83.7 °F 47.1 °F 29.83 in NW 2.0 mph 2.0 mph 28 % 0.00 in
14:42 84.0 °F 46.4 °F 29.83 in NNE 2.3 mph 2.3 mph 27 % 0.00 in
14:47 84.0 °F 46.4 °F 29.83 in WNW 2.3 mph 2.3 mph 27 % 0.00 in
14:52 84.1 °F 45.5 °F 29.83 in NNW 1.2 mph 1.2 mph 26 % 0.00 in
14:57 83.9 °F 44.3 °F 29.82 in NNW 2.3 mph 2.3 mph 25 % 0.00 in
15:02 83.8 °F 44.2 °F 29.82 in ENE 3.0 mph 3.0 mph 25 % 0.00 in
15:07 83.7 °F 47.1 °F 29.83 in NW 3.5 mph 3.5 mph 28 % 0.00 in
15:12 83.5 °F 45.0 °F 29.82 in NW 1.2 mph 1.2 mph 26 % 0.00 in
15:17 83.5 °F 46.0 °F 29.82 in NW 1.2 mph 1.2 mph 27 % 0.00 in
15:22 83.9 °F 44.3 °F 29.82 in NW 3.5 mph 3.5 mph 25 % 0.00 in
15:32 83.3 °F 44.8 °F 29.82 in WNW 2.3 mph 2.3 mph 26 % 0.00 in
15:37 82.9 °F 44.5 °F 29.81 in North 2.3 mph 2.3 mph 26 % 0.00 in
15:42 82.7 °F 44.3 °F 29.81 in NW 3.5 mph 3.5 mph 26 % 0.00 in
15:48 82.5 °F 45.1 °F 29.81 in WNW 3.5 mph 3.5 mph 27 % 0.00 in
15:53 82.1 °F 44.8 °F 29.81 in NW 3.5 mph 3.5 mph 27 % 0.00 in
15:58 81.9 °F 44.6 °F 29.81 in WNW 2.3 mph 2.3 mph 27 % 0.00 in
16:03 81.9 °F 43.6 °F 29.81 in NW 3.5 mph 3.5 mph 26 % 0.00 in
16:08 81.8 °F 45.5 °F 29.81 in WSW 2.3 mph 2.3 mph 28 % 0.00 in
16:13 81.7 °F 45.4 °F 29.81 in NW 2.3 mph 2.3 mph 28 % 0.00 in
16:16 81.7 °F 43.5 °F 29.81 in WNW 1.2 mph 1.2 mph 26 % 0.00 in
16:21 81.6 °F 43.4 °F 29.81 in NW 2.3 mph 2.3 mph 26 % 0.00 in
16:26 81.9 °F 44.6 °F 29.80 in West 3.5 mph 3.5 mph 27 % 0.00 in
16:31 82.0 °F 44.7 °F 29.80 in WNW 2.3 mph 2.3 mph 27 % 0.00 in
16:36 81.9 °F 44.6 °F 29.80 in NW 2.3 mph 2.3 mph 27 % 0.00 in
16:41 81.9 °F 44.6 °F 29.80 in NW 2.3 mph 2.3 mph 27 % 0.00 in
16:46 81.9 °F 44.6 °F 29.80 in WNW 1.2 mph 1.2 mph 27 % 0.00 in
16:51 81.9 °F 44.6 °F 29.80 in NW 3.5 mph 3.5 mph 27 % 0.00 in
16:56 82.2 °F 45.8 °F 29.79 in NW 1.2 mph 1.2 mph 28 % 0.00 in
17:01 82.3 °F 44.0 °F 29.79 in WNW 3.5 mph 3.5 mph 26 % 0.00 in
17:06 82.1 °F 43.8 °F 29.79 in NW 2.3 mph 2.3 mph 26 % 0.00 in
17:11 82.0 °F 44.7 °F 29.79 in NW 1.2 mph 1.2 mph 27 % 0.00 in
17:16 81.7 °F 44.5 °F 29.79 in NW 1.2 mph 1.2 mph 27 % 0.00 in
17:21 81.4 °F 42.2 °F 29.80 in WNW 1.2 mph 1.2 mph 25 % 0.00 in
17:26 81.2 °F 44.0 °F 29.80 in NW 1.2 mph 1.2 mph 27 % 0.00 in
17:31 81.0 °F 43.9 °F 29.80 in NW 2.3 mph 2.3 mph 27 % 0.00 in
17:41 80.5 °F 44.4 °F 29.79 in WNW 2.0 mph 2.0 mph 28 % 0.00 in
17:46 80.3 °F 44.2 °F 29.79 in NW 1.2 mph 1.3 mph 28 % 0.00 in
17:51 80.2 °F 44.1 °F 29.79 in Calm     28 % 0.00 in
17:56 80.0 °F 45.8 °F 29.79 in NW 1.0 mph 1.0 mph 30 % 0.00 in
18:01 79.8 °F 45.6 °F 29.79 in Calm     30 % 0.00 in
18:06 79.5 °F 45.3 °F 29.79 in WNW 1.2 mph 1.2 mph 30 % 0.00 in
18:11 79.3 °F 45.2 °F 29.79 in Calm     30 % 0.00 in
18:16 79.0 °F 45.8 °F 29.79 in Calm     31 % 0.00 in
18:21 78.6 °F 45.4 °F 29.79 in Calm     31 % 0.00 in
18:26 78.1 °F 46.6 °F 29.79 in Calm     33 % 0.00 in
18:31 77.4 °F 46.8 °F 29.79 in Calm     34 % 0.00 in
18:42 75.9 °F 47.0 °F 29.79 in Calm     36 % 0.00 in
18:47 75.3 °F 50.0 °F 29.79 in Calm     41 % 0.00 in
18:52 74.6 °F 48.7 °F 29.79 in Calm     40 % 0.00 in
18:57 73.9 °F 50.0 °F 29.79 in Calm     43 % 0.00 in
19:02 73.1 °F 49.3 °F 29.79 in Calm     43 % 0.00 in
19:07 72.4 °F 48.6 °F 29.79 in Calm     43 % 0.00 in
19:12 71.8 °F 51.0 °F 29.80 in Calm     48 % 0.00 in
19:17 71.2 °F 49.9 °F 29.79 in Calm     47 % 0.00 in
19:22 70.7 °F 50.6 °F 29.79 in Calm     49 % 0.00 in
19:27 70.1 °F 50.0 °F 29.79 in Calm     49 % 0.00 in
19:32 69.6 °F 50.7 °F 29.79 in Calm     51 % 0.00 in
19:37 69.1 °F 51.2 °F 29.80 in Calm     53 % 0.00 in
19:42 68.9 °F 51.1 °F 29.80 in Calm     53 % 0.00 in
19:47 68.6 °F 50.8 °F 29.80 in Calm     53 % 0.00 in
19:52 68.6 °F 50.8 °F 29.80 in Calm     53 % 0.00 in
19:57 68.4 °F 50.6 °F 29.80 in Calm     53 % 0.00 in
20:07 67.6 °F 50.9 °F 29.80 in Calm     55 % 0.00 in
20:12 67.3 °F 51.1 °F 29.80 in Calm     56 % 0.00 in
20:17 67.2 °F 52.4 °F 29.80 in Calm     59 % 0.00 in
20:20 67.0 °F 51.7 °F 29.80 in Calm     58 % 0.00 in
20:25 66.7 °F 52.8 °F 29.80 in Calm     61 % 0.00 in
20:26 66.6 °F 53.2 °F 29.80 in Calm     62 % 0.00 in
20:29 66.4 °F 52.5 °F 29.80 in Calm     61 % 0.00 in
20:30 66.4 °F 52.5 °F 29.80 in Calm     61 % 0.00 in
20:35 66.1 °F 52.3 °F 29.80 in Calm     61 % 0.00 in
20:40 66.1 °F 52.3 °F 29.80 in Calm     61 % 0.00 in
20:55 65.5 °F 52.6 °F 29.80 in Calm     63 % 0.00 in
21:00 65.4 °F 52.5 °F 29.80 in Calm     63 % 0.00 in
21:05 65.4 °F 52.9 °F 29.81 in Calm     64 % 0.00 in
21:10 65.2 °F 52.7 °F 29.80 in Calm     64 % 0.00 in
21:15 65.0 °F 52.9 °F 29.80 in Calm     65 % 0.00 in
21:20 65.1 °F 52.2 °F 29.80 in Calm     63 % 0.00 in
21:25 65.0 °F 51.7 °F 29.80 in Calm     62 % 0.00 in
21:30 65.1 °F 50.4 °F 29.80 in Calm     59 % 0.00 in
21:35 65.2 °F 51.4 °F 29.81 in Calm     61 % 0.00 in
21:40 64.9 °F 53.3 °F 29.81 in Calm     66 % 0.00 in
21:46 63.8 °F 52.6 °F 29.81 in Calm     67 % 0.00 in
21:51 63.2 °F 52.9 °F 29.81 in Calm     69 % 0.00 in
21:56 62.7 °F 53.2 °F 29.81 in Calm     71 % 0.00 in
22:01 62.3 °F 52.8 °F 29.82 in Calm     71 % 0.00 in
22:06 61.5 °F 52.0 °F 29.82 in Calm     71 % 0.00 in
22:11 61.2 °F 52.1 °F 29.82 in Calm     72 % 0.00 in
22:16 61.0 °F 51.9 °F 29.82 in Calm     72 % 0.00 in
22:18 61.0 °F 51.5 °F 29.82 in Calm     71 % 0.00 in
22:23 61.0 °F 51.9 °F 29.82 in Calm     72 % 0.00 in
22:33 60.7 °F 51.6 °F 29.82 in Calm     72 % 0.00 in
22:38 60.5 °F 52.2 °F 29.82 in Calm     74 % 0.00 in
22:43 60.0 °F 51.7 °F 29.82 in Calm     74 % 0.00 in
22:48 59.4 °F 51.5 °F 29.82 in NNE 1.0 mph 1.0 mph 75 % 0.00 in
22:53 58.8 °F 51.6 °F 29.82 in NNE 1.2 mph   77 % 0.00 in
22:58 58.5 °F 51.7 °F 29.82 in Calm     78 % 0.00 in
23:03 58.6 °F 51.8 °F 29.82 in Calm     78 % 0.00 in
23:08 58.8 °F 52.0 °F 29.82 in Calm     78 % 0.00 in
23:13 58.8 °F 52.0 °F 29.82 in Calm     78 % 0.00 in
23:18 58.8 °F 51.6 °F 29.82 in Calm     77 % 0.00 in
23:23 59.0 °F 51.4 °F 29.82 in Calm     76 % 0.00 in
23:28 59.2 °F 52.3 °F 29.82 in Calm     78 % 0.00 in
23:33 59.2 °F 52.7 °F 29.82 in Calm     79 % 0.00 in
23:38 58.9 °F 52.1 °F 29.82 in Calm     78 % 0.00 in
23:43 58.8 °F 51.6 °F 29.82 in Calm     77 % 0.00 in
23:48 58.6 °F 51.8 °F 29.82 in Calm     78 % 0.00 in
23:53 58.6 °F 52.1 °F 29.82 in Calm     79 % 0.00 in
23:58 58.5 °F 51.7 °F 29.82 in Calm     78 % 0.00 in
Park Place, Exeter, Tulare County, California, USA
Compliments of Weather Underground - 2.75 mb